createdAt,value
2022-09-29T00:00:41.956Z,18.30
2022-09-29T00:01:41.932Z,18.30
2022-09-29T00:02:41.962Z,18.10
2022-09-29T00:03:41.903Z,18.60
2022-09-29T00:04:41.855Z,18.50
2022-09-29T00:05:41.846Z,18.20
2022-09-29T00:06:41.824Z,18.80
2022-09-29T00:07:41.805Z,18.30
2022-09-29T00:08:41.805Z,18.70
2022-09-29T00:09:41.796Z,19.00
2022-09-29T00:10:41.774Z,18.80
2022-09-29T00:11:41.754Z,18.60
2022-09-29T00:12:41.745Z,18.40
2022-09-29T00:13:41.748Z,18.90
2022-09-29T00:14:44.605Z,18.80
2022-09-29T00:15:42.714Z,19.50
2022-09-29T00:16:41.829Z,18.80
2022-09-29T00:17:49.699Z,19.00
2022-09-29T00:18:42.715Z,19.10
2022-09-29T00:19:41.677Z,20.10
2022-09-29T00:20:41.651Z,18.90
2022-09-29T00:21:41.638Z,19.40
2022-09-29T00:22:41.624Z,19.20
2022-09-29T00:23:41.605Z,19.20
2022-09-29T00:24:41.605Z,19.40
2022-09-29T00:25:41.605Z,18.90
2022-09-29T00:26:41.566Z,19.00
2022-09-29T00:27:41.556Z,18.70
2022-09-29T00:28:41.573Z,19.20
2022-09-29T00:29:41.545Z,20.00
2022-09-29T00:30:41.575Z,19.50
2022-09-29T00:31:41.561Z,19.40
2022-09-29T00:32:41.495Z,19.60
2022-09-29T00:33:41.484Z,19.10
2022-09-29T00:34:41.467Z,18.60
2022-09-29T00:35:41.467Z,19.60
2022-09-29T00:36:41.458Z,19.70
2022-09-29T00:37:41.427Z,19.00
2022-09-29T00:38:41.416Z,19.30
2022-09-29T00:39:41.405Z,18.60
2022-09-29T00:40:41.435Z,18.50
2022-09-29T00:41:41.376Z,18.60
2022-09-29T00:42:41.385Z,18.60
2022-09-29T00:43:41.367Z,18.00
2022-09-29T00:44:41.345Z,18.20
2022-09-29T00:45:41.365Z,18.60
2022-09-29T00:46:41.344Z,18.50
2022-09-29T00:47:41.347Z,20.10
2022-09-29T00:48:41.308Z,18.60
2022-09-29T00:49:41.275Z,18.80
2022-09-29T00:50:41.375Z,18.80
2022-09-29T00:51:41.246Z,18.40
2022-09-29T00:52:41.516Z,18.10
2022-09-29T00:53:41.218Z,18.60
2022-09-29T00:54:41.221Z,18.40
2022-09-29T00:55:41.207Z,18.70
2022-09-29T00:56:41.198Z,18.80
2022-09-29T00:57:41.196Z,18.50
2022-09-29T00:58:41.207Z,18.50
2022-09-29T00:59:41.148Z,18.60
2022-09-29T01:00:41.181Z,17.90
2022-09-29T01:01:41.169Z,18.00
2022-09-29T01:02:41.123Z,18.60
2022-09-29T01:03:48.149Z,18.10
2022-09-29T01:04:41.098Z,18.30
2022-09-29T01:05:41.110Z,18.60
2022-09-29T01:06:41.058Z,18.10
2022-09-29T01:07:41.095Z,18.00
2022-09-29T01:08:41.041Z,18.50
2022-09-29T01:09:41.060Z,18.00
2022-09-29T01:10:41.023Z,18.20
2022-09-29T01:11:41.001Z,18.00
2022-09-29T01:12:41.041Z,18.30
2022-09-29T01:13:40.993Z,19.30
2022-09-29T01:14:40.971Z,18.60
2022-09-29T01:15:40.953Z,18.70
2022-09-29T01:16:41.016Z,18.50
2022-09-29T01:17:40.930Z,19.20
2022-09-29T01:18:40.928Z,18.30
2022-09-29T01:19:40.900Z,18.40
2022-09-29T01:20:40.880Z,18.50
2022-09-29T01:21:40.874Z,18.70
2022-09-29T01:22:40.860Z,18.60
2022-09-29T01:23:40.859Z,18.30
2022-09-29T01:24:40.883Z,18.40
2022-09-29T01:25:40.821Z,18.30
2022-09-29T01:26:40.862Z,18.80
2022-09-29T01:27:40.793Z,18.40
2022-09-29T01:28:40.849Z,18.30
2022-09-29T01:29:40.797Z,18.30
2022-09-29T01:30:40.771Z,19.00
2022-09-29T01:31:40.776Z,18.40
2022-09-29T01:32:40.736Z,18.70
2022-09-29T01:33:40.731Z,18.60
2022-09-29T01:34:40.737Z,18.60
2022-09-29T01:35:40.731Z,18.80
2022-09-29T01:36:40.679Z,18.00
2022-09-29T01:37:40.671Z,18.40
2022-09-29T01:38:40.650Z,18.90
2022-09-29T01:39:40.652Z,18.50
2022-09-29T01:40:40.663Z,18.40
2022-09-29T01:41:40.619Z,18.20
2022-09-29T01:42:40.605Z,18.30
2022-09-29T01:43:40.582Z,17.90
2022-09-29T01:44:40.580Z,18.30
2022-09-29T01:45:40.696Z,18.10
2022-09-29T01:46:40.551Z,18.20
2022-09-29T01:47:40.571Z,18.50
2022-09-29T01:48:40.520Z,18.50
2022-09-29T01:49:40.520Z,18.90
2022-09-29T01:50:40.508Z,18.70
2022-09-29T01:51:40.489Z,18.60
2022-09-29T01:52:40.492Z,18.80
2022-09-29T01:53:40.495Z,18.70
2022-09-29T01:54:40.493Z,18.40
2022-09-29T01:55:40.442Z,18.80
2022-09-29T01:56:40.421Z,19.00
2022-09-29T01:57:40.422Z,18.70
2022-09-29T01:58:40.400Z,18.30
2022-09-29T01:59:40.382Z,18.60
2022-09-29T02:00:40.425Z,18.90
2022-09-29T02:01:40.384Z,18.40
2022-09-29T02:02:40.376Z,20.00
2022-09-29T02:03:40.353Z,18.80
2022-09-29T02:04:40.322Z,19.00
2022-09-29T02:05:40.312Z,19.00
2022-09-29T02:06:40.297Z,18.70
2022-09-29T02:07:40.290Z,19.00
2022-09-29T02:08:40.290Z,19.50
2022-09-29T02:09:40.261Z,18.80
2022-09-29T02:10:40.243Z,18.30
2022-09-29T02:11:40.233Z,18.50
2022-09-29T02:12:40.222Z,18.60
2022-09-29T02:13:40.200Z,18.80
2022-09-29T02:14:40.205Z,18.60
2022-09-29T02:15:40.183Z,18.50
2022-09-29T02:16:40.259Z,20.40
2022-09-29T02:17:40.159Z,18.90
2022-09-29T02:18:40.142Z,19.20
2022-09-29T02:19:40.151Z,18.90
2022-09-29T02:20:40.127Z,19.50
2022-09-29T02:21:40.117Z,19.30
2022-09-29T02:22:40.115Z,19.00
2022-09-29T02:23:40.074Z,19.50
2022-09-29T02:24:40.091Z,19.20
2022-09-29T02:25:40.073Z,19.10
2022-09-29T02:26:40.079Z,18.90
2022-09-29T02:27:40.051Z,19.60
2022-09-29T02:28:40.032Z,19.90
2022-09-29T02:29:40.005Z,19.80
2022-09-29T02:30:39.992Z,20.00
2022-09-29T02:31:40.070Z,21.40
2022-09-29T02:32:39.962Z,19.60
2022-09-29T02:33:39.952Z,19.40
2022-09-29T02:34:39.953Z,19.00
2022-09-29T02:35:39.922Z,18.90
2022-09-29T02:36:39.943Z,19.20
2022-09-29T02:37:39.919Z,19.50
2022-09-29T02:38:39.913Z,19.50
2022-09-29T02:39:39.922Z,19.30
2022-09-29T02:40:39.934Z,18.70
2022-09-29T02:41:39.872Z,19.70
2022-09-29T02:42:39.852Z,20.00
2022-09-29T02:43:39.822Z,20.90
2022-09-29T02:44:39.801Z,19.50
2022-09-29T02:45:39.831Z,19.20
2022-09-29T02:46:39.800Z,18.70
2022-09-29T02:47:39.763Z,19.70
2022-09-29T02:48:39.751Z,20.40
2022-09-29T02:49:39.740Z,19.50
2022-09-29T02:50:39.723Z,19.60
2022-09-29T02:51:39.739Z,18.60
2022-09-29T02:52:39.733Z,19.20
2022-09-29T02:53:39.710Z,19.50
2022-09-29T02:54:39.685Z,19.20
2022-09-29T02:55:39.713Z,19.10
2022-09-29T02:56:39.643Z,18.40
2022-09-29T02:57:39.650Z,19.20
2022-09-29T02:58:39.650Z,19.00
2022-09-29T02:59:39.631Z,19.50
2022-09-29T03:00:39.631Z,19.70
2022-09-29T03:01:39.624Z,19.20
2022-09-29T03:02:39.572Z,19.60
2022-09-29T03:03:39.636Z,19.50
2022-09-29T03:04:39.563Z,19.20
2022-09-29T03:05:39.546Z,19.50
2022-09-29T03:06:39.549Z,19.40
2022-09-29T03:07:39.535Z,19.30
2022-09-29T03:08:39.491Z,19.20
2022-09-29T03:09:39.501Z,19.80
2022-09-29T03:10:39.499Z,21.60
2022-09-29T03:11:39.463Z,21.20
2022-09-29T03:12:39.462Z,20.60
2022-09-29T03:13:39.439Z,19.60
2022-09-29T03:14:39.421Z,20.10
2022-09-29T03:15:39.422Z,19.50
2022-09-29T03:16:39.451Z,20.00
2022-09-29T03:17:39.383Z,19.20
2022-09-29T03:18:39.375Z,18.80
2022-09-29T03:19:39.359Z,20.50
2022-09-29T03:20:39.343Z,19.30
2022-09-29T03:21:39.353Z,19.90
2022-09-29T03:22:39.340Z,20.20
2022-09-29T03:23:39.305Z,19.60
2022-09-29T03:24:39.320Z,19.40
2022-09-29T03:25:39.279Z,19.40
2022-09-29T03:26:39.272Z,20.10
2022-09-29T03:27:39.263Z,19.90
2022-09-29T03:28:39.233Z,19.90
2022-09-29T03:29:39.231Z,20.10
2022-09-29T03:30:39.212Z,20.10
2022-09-29T03:31:39.220Z,19.30
2022-09-29T03:32:39.192Z,20.00
2022-09-29T03:33:39.335Z,20.20
2022-09-29T03:34:39.163Z,19.80
2022-09-29T03:35:42.487Z,18.70
2022-09-29T03:36:40.142Z,20.00
2022-09-29T03:37:39.134Z,19.30
2022-09-29T03:38:39.138Z,19.60
2022-09-29T03:39:39.113Z,20.20
2022-09-29T03:40:39.132Z,19.20
2022-09-29T03:41:39.068Z,19.80
2022-09-29T03:42:39.061Z,19.00
2022-09-29T03:43:39.070Z,19.10
2022-09-29T03:44:39.143Z,20.20
2022-09-29T03:45:39.037Z,18.60
2022-09-29T03:46:39.010Z,20.40
2022-09-29T03:47:38.997Z,20.20
2022-09-29T03:48:38.983Z,19.40
2022-09-29T03:49:39.004Z,20.20
2022-09-29T03:50:39.032Z,19.60
2022-09-29T03:51:38.972Z,18.50
2022-09-29T03:52:38.983Z,19.80
2022-09-29T03:53:38.934Z,19.10
2022-09-29T03:54:38.912Z,19.60
2022-09-29T03:55:38.895Z,18.90
2022-09-29T03:56:38.919Z,19.20
2022-09-29T03:57:38.862Z,19.20
2022-09-29T03:58:38.851Z,19.60
2022-09-29T03:59:43.256Z,19.40
2022-09-29T04:00:39.912Z,19.50
2022-09-29T04:01:38.903Z,18.50
2022-09-29T04:02:38.834Z,18.70
2022-09-29T04:03:38.781Z,19.10
2022-09-29T04:04:38.803Z,18.80
2022-09-29T04:05:38.762Z,18.90
2022-09-29T04:06:38.754Z,18.90
2022-09-29T04:07:38.754Z,18.60
2022-09-29T04:08:38.773Z,19.40
2022-09-29T04:09:38.733Z,18.20
2022-09-29T04:10:38.693Z,19.30
2022-09-29T04:11:38.700Z,18.40
2022-09-29T04:12:38.681Z,19.00
2022-09-29T04:13:38.669Z,19.10
2022-09-29T04:14:38.662Z,19.00
2022-09-29T04:15:38.652Z,19.10
2022-09-29T04:16:38.743Z,18.70
2022-09-29T04:17:38.620Z,18.30
2022-09-29T04:18:38.629Z,19.20
2022-09-29T04:19:38.585Z,19.90
2022-09-29T04:20:38.605Z,19.20
2022-09-29T04:21:38.567Z,18.60
2022-09-29T04:22:38.545Z,18.70
2022-09-29T04:23:38.559Z,18.90
2022-09-29T04:24:38.532Z,18.40
2022-09-29T04:25:38.513Z,18.30
2022-09-29T04:26:38.516Z,18.30
2022-09-29T04:27:38.483Z,18.30
2022-09-29T04:28:38.492Z,18.00
2022-09-29T04:29:38.461Z,18.30
2022-09-29T04:30:38.442Z,19.20
2022-09-29T04:31:38.472Z,18.40
2022-09-29T04:32:38.422Z,18.80
2022-09-29T04:33:38.405Z,19.10
2022-09-29T04:34:38.422Z,18.70
2022-09-29T04:35:38.372Z,18.90
2022-09-29T04:36:38.370Z,17.90
2022-09-29T04:37:38.353Z,18.50
2022-09-29T04:38:38.402Z,18.30
2022-09-29T04:39:38.368Z,18.80
2022-09-29T04:40:38.399Z,18.40
2022-09-29T04:41:38.314Z,17.90
2022-09-29T04:42:38.313Z,17.30
2022-09-29T04:43:38.290Z,17.80
2022-09-29T04:44:38.265Z,18.90
2022-09-29T04:45:38.342Z,18.00
2022-09-29T04:46:38.304Z,18.20
2022-09-29T04:47:38.230Z,18.20
2022-09-29T04:48:38.286Z,18.60
2022-09-29T04:49:38.211Z,17.60
2022-09-29T04:50:38.201Z,18.10
2022-09-29T04:51:38.247Z,17.90
2022-09-29T04:52:38.176Z,18.00
2022-09-29T04:53:38.155Z,18.30
2022-09-29T04:54:38.353Z,17.90
2022-09-29T04:55:38.146Z,17.80
2022-09-29T04:56:38.129Z,18.00
2022-09-29T04:57:38.130Z,17.70
2022-09-29T04:58:38.086Z,18.20
2022-09-29T04:59:38.074Z,17.90
2022-09-29T05:00:38.150Z,17.90
2022-09-29T05:01:38.043Z,17.90
2022-09-29T05:02:38.103Z,18.30
2022-09-29T05:03:38.033Z,17.80
2022-09-29T05:04:38.069Z,17.40
2022-09-29T05:05:38.066Z,19.10
2022-09-29T05:06:38.014Z,17.90
2022-09-29T05:07:38.022Z,18.50
2022-09-29T05:08:37.946Z,18.10
2022-09-29T05:09:37.942Z,17.90
2022-09-29T05:10:37.922Z,18.20
2022-09-29T05:11:37.933Z,18.60
2022-09-29T05:12:37.917Z,18.20
2022-09-29T05:13:37.902Z,18.30
2022-09-29T05:14:37.914Z,18.50
2022-09-29T05:15:37.875Z,18.10
2022-09-29T05:16:37.920Z,17.80
2022-09-29T05:17:37.843Z,18.20
2022-09-29T05:18:37.835Z,17.80
2022-09-29T05:19:37.835Z,18.40
2022-09-29T05:20:43.753Z,18.10
2022-09-29T05:21:38.795Z,18.00
2022-09-29T05:22:37.785Z,18.60
2022-09-29T05:23:37.843Z,18.10
2022-09-29T05:24:37.752Z,18.50
2022-09-29T05:25:37.731Z,18.00
2022-09-29T05:26:37.734Z,18.30
2022-09-29T05:27:37.735Z,18.60
2022-09-29T05:28:38.014Z,18.70
2022-09-29T05:29:37.744Z,18.10
2022-09-29T05:30:37.674Z,18.20
2022-09-29T05:31:37.784Z,18.80
2022-09-29T05:32:37.721Z,18.20
2022-09-29T05:33:37.653Z,18.40
2022-09-29T05:34:37.635Z,18.20
2022-09-29T05:35:37.615Z,19.00
2022-09-29T05:36:37.602Z,18.20
2022-09-29T05:37:37.625Z,18.40
2022-09-29T05:38:37.575Z,17.90
2022-09-29T05:39:37.584Z,18.00
2022-09-29T05:40:37.603Z,19.30
2022-09-29T05:41:37.533Z,17.80
2022-09-29T05:42:37.514Z,18.50
2022-09-29T05:43:37.500Z,18.20
2022-09-29T05:44:37.483Z,18.20
2022-09-29T05:45:37.519Z,17.80
2022-09-29T05:46:37.464Z,18.70
2022-09-29T05:47:37.452Z,17.80
2022-09-29T05:48:37.454Z,18.20
2022-09-29T05:49:37.434Z,17.90
2022-09-29T05:50:37.434Z,18.10
2022-09-29T05:51:37.495Z,18.50
2022-09-29T05:52:37.396Z,17.60
2022-09-29T05:53:37.387Z,17.80
2022-09-29T05:54:37.403Z,18.00
2022-09-29T05:55:37.393Z,18.00
2022-09-29T05:56:39.754Z,18.20
2022-09-29T05:57:37.367Z,18.20
2022-09-29T05:58:37.322Z,18.10
2022-09-29T05:59:37.367Z,17.90
2022-09-29T06:00:37.303Z,17.80
2022-09-29T06:01:37.359Z,18.70
2022-09-29T06:02:37.279Z,18.00
2022-09-29T06:03:37.253Z,17.40
2022-09-29T06:04:40.637Z,18.20
2022-09-29T06:05:37.235Z,17.80
2022-09-29T06:06:37.225Z,17.70
2022-09-29T06:07:37.215Z,17.60
2022-09-29T06:08:37.213Z,17.50
2022-09-29T06:09:37.165Z,18.10
2022-09-29T06:10:37.155Z,17.80
2022-09-29T06:11:37.178Z,18.80
2022-09-29T06:12:37.163Z,18.10
2022-09-29T06:13:37.150Z,17.70
2022-09-29T06:14:37.116Z,17.10
2022-09-29T06:15:37.138Z,17.00
2022-09-29T06:16:37.224Z,16.80
2022-09-29T06:17:37.080Z,18.10
2022-09-29T06:18:37.096Z,17.90
2022-09-29T06:19:38.311Z,17.60
2022-09-29T06:20:37.026Z,17.40
2022-09-29T06:21:37.013Z,17.00
2022-09-29T06:22:37.094Z,17.10
2022-09-29T06:23:36.997Z,17.90
2022-09-29T06:24:36.983Z,16.90
2022-09-29T06:25:36.965Z,17.70
2022-09-29T06:26:36.946Z,17.40
2022-09-29T06:27:36.997Z,17.50
2022-09-29T06:28:36.968Z,17.80
2022-09-29T06:29:36.937Z,16.80
2022-09-29T06:30:36.906Z,17.70
2022-09-29T06:31:36.954Z,17.10
2022-09-29T06:32:36.898Z,18.00
2022-09-29T06:33:36.876Z,17.50
2022-09-29T06:34:36.865Z,17.70
2022-09-29T06:35:36.848Z,17.30
2022-09-29T06:36:36.865Z,17.50
2022-09-29T06:37:36.813Z,17.40
2022-09-29T06:38:36.803Z,17.60
2022-09-29T06:39:36.794Z,17.20
2022-09-29T06:40:36.808Z,17.70
2022-09-29T06:41:36.754Z,17.00
2022-09-29T06:42:36.745Z,17.10
2022-09-29T06:43:36.734Z,16.80
2022-09-29T06:44:36.788Z,17.20
2022-09-29T06:45:36.755Z,16.90
2022-09-29T06:46:36.736Z,17.10
2022-09-29T06:47:36.786Z,17.20
2022-09-29T06:48:36.669Z,17.00
2022-09-29T06:49:36.704Z,17.10
2022-09-29T06:50:36.639Z,17.20
2022-09-29T06:51:45.446Z,17.70
2022-09-29T06:52:37.633Z,17.70
2022-09-29T06:53:38.694Z,16.90
2022-09-29T06:54:36.629Z,17.40
2022-09-29T06:55:36.642Z,17.30
2022-09-29T06:56:36.571Z,17.60
2022-09-29T06:57:36.563Z,16.80
2022-09-29T06:58:36.543Z,16.80
2022-09-29T06:59:36.533Z,17.40
2022-09-29T07:00:36.642Z,17.40
2022-09-29T07:01:36.607Z,17.20
2022-09-29T07:02:36.535Z,16.80
2022-09-29T07:03:43.592Z,17.30
2022-09-29T07:04:36.481Z,17.50
2022-09-29T07:05:36.463Z,17.30
2022-09-29T07:06:36.500Z,17.10
2022-09-29T07:07:36.421Z,18.70
2022-09-29T07:08:36.402Z,17.00
2022-09-29T07:09:36.428Z,17.60
2022-09-29T07:10:36.394Z,17.40
2022-09-29T07:11:36.374Z,17.70
2022-09-29T07:12:36.363Z,17.40
2022-09-29T07:13:36.356Z,17.00
2022-09-29T07:14:36.460Z,17.50
2022-09-29T07:15:36.321Z,17.20
2022-09-29T07:16:36.411Z,17.50
2022-09-29T07:17:36.282Z,19.40
2022-09-29T07:18:36.273Z,17.80
2022-09-29T07:19:36.732Z,17.50
2022-09-29T07:20:36.772Z,17.50
2022-09-29T07:21:36.249Z,18.40
2022-09-29T07:22:36.233Z,17.40
2022-09-29T07:23:36.223Z,17.40
2022-09-29T07:24:36.206Z,17.80
2022-09-29T07:25:50.939Z,16.80
2022-09-29T07:26:37.194Z,17.20
2022-09-29T07:27:36.171Z,16.90
2022-09-29T07:28:36.154Z,18.10
2022-09-29T07:29:36.168Z,17.10
2022-09-29T07:30:40.365Z,17.80
2022-09-29T07:31:48.161Z,17.70
2022-09-29T07:32:37.131Z,17.20
2022-09-29T07:33:39.240Z,17.20
2022-09-29T07:34:36.069Z,17.80
2022-09-29T07:35:39.769Z,17.00
2022-09-29T07:36:36.083Z,17.40
2022-09-29T07:37:36.062Z,16.60
2022-09-29T07:38:36.108Z,16.60
2022-09-29T07:39:36.016Z,16.40
2022-09-29T07:40:36.030Z,16.90
2022-09-29T07:41:36.007Z,16.90
2022-09-29T07:42:36.013Z,16.70
2022-09-29T07:43:35.964Z,16.60
2022-09-29T07:44:35.964Z,16.10
2022-09-29T07:45:35.980Z,16.70
2022-09-29T07:46:35.967Z,16.00
2022-09-29T07:47:35.909Z,16.40
2022-09-29T07:48:35.921Z,16.70
2022-09-29T07:49:35.883Z,16.20
2022-09-29T07:50:35.865Z,16.00
2022-09-29T07:51:35.860Z,16.40
2022-09-29T07:52:35.835Z,16.10
2022-09-29T07:53:35.823Z,17.40
2022-09-29T07:54:35.825Z,16.20
2022-09-29T07:55:35.805Z,16.20
2022-09-29T07:56:35.785Z,16.70
2022-09-29T07:57:35.784Z,15.60
2022-09-29T07:58:35.766Z,16.20
2022-09-29T07:59:35.816Z,16.00
2022-09-29T08:00:35.764Z,15.70
2022-09-29T08:01:35.818Z,15.10
2022-09-29T08:02:35.758Z,14.90
2022-09-29T08:03:35.709Z,15.40
2022-09-29T08:04:35.693Z,15.40
2022-09-29T08:05:35.683Z,15.40
2022-09-29T08:06:35.653Z,15.60
2022-09-29T08:07:35.652Z,15.80
2022-09-29T08:08:35.634Z,15.80
2022-09-29T08:09:40.728Z,15.70
2022-09-29T08:10:48.308Z,15.70
2022-09-29T08:11:36.595Z,15.30
2022-09-29T08:12:42.909Z,15.20
2022-09-29T08:13:36.573Z,15.50
2022-09-29T08:14:35.611Z,15.50
2022-09-29T08:15:35.553Z,15.30
2022-09-29T08:16:35.612Z,14.90
2022-09-29T08:17:35.505Z,14.90
2022-09-29T08:18:35.506Z,14.90
2022-09-29T08:19:35.502Z,14.90
2022-09-29T08:20:35.516Z,15.30
2022-09-29T08:21:35.463Z,15.40
2022-09-29T08:22:35.460Z,14.90
2022-09-29T08:23:35.436Z,14.90
2022-09-29T08:24:35.453Z,15.90
2022-09-29T08:25:35.414Z,15.30
2022-09-29T08:26:42.394Z,15.40
2022-09-29T08:27:46.223Z,14.40
2022-09-29T08:28:36.374Z,14.80
2022-09-29T08:29:43.944Z,14.20
2022-09-29T08:30:36.345Z,14.90
2022-09-29T08:31:35.395Z,14.60
2022-09-29T08:32:35.333Z,14.10
2022-09-29T08:33:35.355Z,14.50
2022-09-29T08:34:35.308Z,14.40
2022-09-29T08:35:35.285Z,14.30
2022-09-29T08:36:35.275Z,14.10
2022-09-29T08:37:35.337Z,14.60
2022-09-29T08:38:35.247Z,14.50
2022-09-29T08:39:35.234Z,13.90
2022-09-29T08:40:35.254Z,14.10
2022-09-29T08:41:35.284Z,14.30
2022-09-29T08:42:44.816Z,14.00
2022-09-29T08:43:36.174Z,14.20
2022-09-29T08:44:39.020Z,14.40
2022-09-29T08:45:35.209Z,14.70
2022-09-29T08:46:36.411Z,14.40
2022-09-29T08:47:45.571Z,14.30
2022-09-29T08:48:36.535Z,14.50
2022-09-29T08:49:35.094Z,14.30
2022-09-29T08:50:35.107Z,14.70
2022-09-29T08:51:42.395Z,14.70
2022-09-29T08:52:48.496Z,14.40
2022-09-29T08:53:36.056Z,14.70
2022-09-29T08:54:39.263Z,14.60
2022-09-29T08:55:35.035Z,14.10
2022-09-29T08:56:35.017Z,14.00
2022-09-29T08:57:35.017Z,14.20
2022-09-29T08:58:34.977Z,13.40
2022-09-29T08:59:35.011Z,13.80
2022-09-29T09:00:34.954Z,13.70
2022-09-29T09:01:35.103Z,14.20
2022-09-29T09:02:34.995Z,13.70
2022-09-29T09:03:34.926Z,14.20
2022-09-29T09:04:34.907Z,13.30
2022-09-29T09:05:34.896Z,13.50
2022-09-29T09:06:34.891Z,13.50
2022-09-29T09:07:34.885Z,13.10
2022-09-29T09:08:34.934Z,13.60
2022-09-29T09:09:34.863Z,13.30
2022-09-29T09:10:34.852Z,13.50
2022-09-29T09:11:34.819Z,13.00
2022-09-29T09:12:34.831Z,14.30
2022-09-29T09:13:34.798Z,13.30
2022-09-29T09:14:34.787Z,13.60
2022-09-29T09:15:34.757Z,13.30
2022-09-29T09:16:34.822Z,12.90
2022-09-29T09:17:34.738Z,13.20
2022-09-29T09:18:34.729Z,12.80
2022-09-29T09:19:34.729Z,12.90
2022-09-29T09:20:34.742Z,13.30
2022-09-29T09:21:34.699Z,13.30
2022-09-29T09:22:34.711Z,13.30
2022-09-29T09:23:34.668Z,13.00
2022-09-29T09:24:34.656Z,12.80
2022-09-29T09:25:34.653Z,13.00
2022-09-29T09:26:34.629Z,12.60
2022-09-29T09:27:34.714Z,12.30
2022-09-29T09:28:34.609Z,12.40
2022-09-29T09:29:37.646Z,12.70
2022-09-29T09:30:34.625Z,12.40
2022-09-29T09:31:34.558Z,12.70
2022-09-29T09:32:34.551Z,12.60
2022-09-29T09:33:34.556Z,12.80
2022-09-29T09:34:42.484Z,12.50
2022-09-29T09:35:35.820Z,12.40
2022-09-29T09:36:34.745Z,12.50
2022-09-29T09:37:34.491Z,12.50
2022-09-29T09:38:34.469Z,12.50
2022-09-29T09:39:34.449Z,12.80
2022-09-29T09:40:34.439Z,12.90
2022-09-29T09:41:36.113Z,13.00
2022-09-29T09:42:34.428Z,12.60
2022-09-29T09:43:34.416Z,12.70
2022-09-29T09:44:34.387Z,13.10
2022-09-29T09:45:34.459Z,13.30
2022-09-29T09:46:34.915Z,13.20
2022-09-29T09:47:34.360Z,13.00
2022-09-29T09:48:34.360Z,12.60
2022-09-29T09:49:34.320Z,12.40
2022-09-29T09:50:34.324Z,12.30
2022-09-29T09:51:34.405Z,12.40
2022-09-29T09:52:34.311Z,12.40
2022-09-29T09:53:34.275Z,12.60
2022-09-29T09:54:34.251Z,12.70
2022-09-29T09:55:34.241Z,12.30
2022-09-29T09:56:34.232Z,12.20
2022-09-29T09:57:34.211Z,12.20
2022-09-29T09:58:34.213Z,12.10
2022-09-29T09:59:34.181Z,12.50
2022-09-29T10:00:34.201Z,11.80
2022-09-29T10:01:34.215Z,12.00
2022-09-29T10:02:34.299Z,12.40
2022-09-29T10:03:34.200Z,12.40
2022-09-29T10:04:34.142Z,12.20
2022-09-29T10:05:34.136Z,11.80
2022-09-29T10:06:34.118Z,12.10
2022-09-29T10:07:34.157Z,11.90
2022-09-29T10:08:34.091Z,11.70
2022-09-29T10:09:34.156Z,11.90
2022-09-29T10:10:34.045Z,11.90
2022-09-29T10:11:34.034Z,11.60
2022-09-29T10:12:34.062Z,12.40
2022-09-29T10:13:34.003Z,11.50
2022-09-29T10:14:34.064Z,11.40
2022-09-29T10:15:34.016Z,11.50
2022-09-29T10:16:34.055Z,11.40
2022-09-29T10:17:33.963Z,11.00
2022-09-29T10:18:33.956Z,11.70
2022-09-29T10:19:33.955Z,11.10
2022-09-29T10:20:33.949Z,11.10
2022-09-29T10:21:33.923Z,11.10
2022-09-29T10:22:33.893Z,10.90
2022-09-29T10:23:33.882Z,10.60
2022-09-29T10:24:33.863Z,10.80
2022-09-29T10:25:33.884Z,10.70
2022-09-29T10:26:33.906Z,10.30
2022-09-29T10:27:33.854Z,10.30
2022-09-29T10:28:33.845Z,10.30
2022-09-29T10:29:33.805Z,10.70
2022-09-29T10:30:33.850Z,10.10
2022-09-29T10:31:33.785Z,10.00
2022-09-29T10:32:33.786Z,9.80
2022-09-29T10:33:33.755Z,9.50
2022-09-29T10:34:33.736Z,9.40
2022-09-29T10:35:33.726Z,9.80
2022-09-29T10:36:33.722Z,9.90
2022-09-29T10:37:33.693Z,9.80
2022-09-29T10:38:33.677Z,9.60
2022-09-29T10:39:33.673Z,9.70
2022-09-29T10:40:33.656Z,11.00
2022-09-29T10:41:33.655Z,9.60
2022-09-29T10:42:33.665Z,9.90
2022-09-29T10:43:33.627Z,10.00
2022-09-29T10:44:33.616Z,9.60
2022-09-29T10:45:33.672Z,9.40
2022-09-29T10:46:33.586Z,9.30
2022-09-29T10:47:33.589Z,9.30
2022-09-29T10:48:33.567Z,9.20
2022-09-29T10:49:33.557Z,9.70
2022-09-29T10:50:36.732Z,9.40
2022-09-29T10:51:33.505Z,9.60
2022-09-29T10:52:33.518Z,9.80
2022-09-29T10:53:33.505Z,9.50
2022-09-29T10:54:33.486Z,9.10
2022-09-29T10:55:33.465Z,9.50
2022-09-29T10:56:33.448Z,9.40
2022-09-29T10:57:33.434Z,9.30
2022-09-29T10:59:34.429Z,8.80
2022-09-29T11:00:33.397Z,10.10
2022-09-29T11:01:33.435Z,9.00
2022-09-29T11:02:33.406Z,9.40
2022-09-29T11:03:33.358Z,9.50
2022-09-29T11:04:33.348Z,10.20
2022-09-29T11:05:33.329Z,9.40
2022-09-29T11:06:33.327Z,9.90
2022-09-29T11:07:33.318Z,9.80
2022-09-29T11:08:33.337Z,9.80
2022-09-29T11:09:33.344Z,9.60
2022-09-29T11:10:33.291Z,10.50
2022-09-29T11:11:33.247Z,9.60
2022-09-29T11:12:33.246Z,9.50
2022-09-29T11:13:33.240Z,10.00
2022-09-29T11:14:33.220Z,9.30
2022-09-29T11:15:33.208Z,10.20
2022-09-29T11:16:33.241Z,9.20
2022-09-29T11:17:33.179Z,8.90
2022-09-29T11:18:33.188Z,8.40
2022-09-29T11:19:33.159Z,8.20
2022-09-29T11:20:33.195Z,8.30
2022-09-29T11:21:33.122Z,8.80
2022-09-29T11:22:33.119Z,8.60
2022-09-29T11:23:33.108Z,8.60
2022-09-29T11:24:33.135Z,8.70
2022-09-29T11:25:33.091Z,8.80
2022-09-29T11:26:33.069Z,8.70
2022-09-29T11:27:33.061Z,8.60
2022-09-29T11:28:33.044Z,8.50
2022-09-29T11:29:33.039Z,8.30
2022-09-29T11:30:33.052Z,8.50
2022-09-29T11:31:32.989Z,8.50
2022-09-29T11:32:32.979Z,8.20
2022-09-29T11:33:32.968Z,8.20
2022-09-29T11:34:32.963Z,8.30
2022-09-29T11:35:32.930Z,8.30
2022-09-29T11:36:32.952Z,8.60
2022-09-29T11:37:34.984Z,8.50
2022-09-29T11:38:32.913Z,8.50
2022-09-29T11:39:32.952Z,8.40
2022-09-29T11:40:32.894Z,8.10
2022-09-29T11:41:32.873Z,8.20
2022-09-29T11:42:32.863Z,8.10
2022-09-29T11:43:32.845Z,8.60
2022-09-29T11:44:32.833Z,8.50
2022-09-29T11:45:32.833Z,8.20
2022-09-29T11:46:32.802Z,8.40
2022-09-29T11:47:32.785Z,7.80
2022-09-29T11:48:32.775Z,8.20
2022-09-29T11:49:32.753Z,8.00
2022-09-29T11:50:34.222Z,7.70
2022-09-29T11:51:32.743Z,7.90
2022-09-29T11:52:32.742Z,7.70
2022-09-29T11:53:32.753Z,7.50
2022-09-29T11:54:32.715Z,7.70
2022-09-29T11:55:32.704Z,7.90
2022-09-29T11:56:32.707Z,7.50
2022-09-29T11:57:32.676Z,7.40
2022-09-29T11:58:32.658Z,7.60
2022-09-29T11:59:32.645Z,7.90
2022-09-29T12:00:32.633Z,7.60
2022-09-29T12:01:32.624Z,7.50
2022-09-29T12:02:32.773Z,7.60
2022-09-29T12:03:32.583Z,7.20
2022-09-29T12:04:32.574Z,7.40
2022-09-29T12:05:32.595Z,7.40
2022-09-29T12:06:32.551Z,7.40
2022-09-29T12:07:32.562Z,7.50
2022-09-29T12:08:32.538Z,7.30
2022-09-29T12:09:32.519Z,7.00
2022-09-29T12:10:32.496Z,7.70
2022-09-29T12:12:05.219Z,7.10
2022-09-29T12:12:33.477Z,7.30
2022-09-29T12:13:32.504Z,7.40
2022-09-29T12:14:33.730Z,6.80
2022-09-29T12:15:33.429Z,7.20
2022-09-29T12:16:32.477Z,7.30
2022-09-29T12:17:32.407Z,7.30
2022-09-29T12:18:32.398Z,7.20
2022-09-29T12:19:32.366Z,7.20
2022-09-29T12:20:32.363Z,7.80
2022-09-29T12:21:32.366Z,7.00
2022-09-29T12:22:34.581Z,7.30
2022-09-29T12:23:32.356Z,7.20
2022-09-29T12:24:32.307Z,7.20
2022-09-29T12:25:32.295Z,7.30
2022-09-29T12:26:32.289Z,6.90
2022-09-29T12:27:32.266Z,6.50
2022-09-29T12:28:32.268Z,6.50
2022-09-29T12:29:32.239Z,6.80
2022-09-29T12:30:32.255Z,6.80
2022-09-29T12:31:32.210Z,6.90
2022-09-29T12:32:32.203Z,6.40
2022-09-29T12:33:32.187Z,6.80
2022-09-29T12:34:32.175Z,6.60
2022-09-29T12:35:32.171Z,7.00
2022-09-29T12:36:32.138Z,7.50
2022-09-29T12:37:32.129Z,7.00
2022-09-29T12:38:32.117Z,7.20
2022-09-29T12:39:32.090Z,7.20
2022-09-29T12:40:32.079Z,8.10
2022-09-29T12:41:32.116Z,7.80
2022-09-29T12:42:32.108Z,7.60
2022-09-29T12:43:32.075Z,7.40
2022-09-29T12:44:32.051Z,8.00
2022-09-29T12:45:35.135Z,7.70
2022-09-29T12:46:32.080Z,7.20
2022-09-29T12:47:32.045Z,8.10
2022-09-29T12:48:31.981Z,7.40
2022-09-29T12:49:31.991Z,6.90
2022-09-29T12:50:31.948Z,7.10
2022-09-29T12:51:31.969Z,7.00
2022-09-29T12:52:31.919Z,6.50
2022-09-29T12:53:31.909Z,6.30
2022-09-29T12:54:31.900Z,6.40
2022-09-29T12:55:31.892Z,6.10
2022-09-29T12:56:31.946Z,6.40
2022-09-29T12:57:31.850Z,5.90
2022-09-29T12:58:31.853Z,5.80